Time;durP1;ratioP1;P1;durP2;ratioP2;P2;SDS_P1;SDS_P2;PMS_P1;PMS_P2;Temp;Humidity;BMP_temperature;BMP_pressure;BME280_temperature;BME280_humidity;BME280_pressure;Samples;Min_cycle;Max_cycle;Signal;HPM_P1;HPM_P2
2022/06/22 00:01:01;;;;;;;7.13;4.00;;;19.90;99.90;;;;;;5070621;28;20441;-47
2022/06/22 00:03:29;;;;;;;7.20;4.20;;;20.00;99.90;;;;;;5070869;28;20444;-48
2022/06/22 00:05:56;;;;;;;7.33;4.23;;;20.00;99.90;;;;;;5070029;28;20502;-48
2022/06/22 00:08:27;;;;;;;8.37;4.63;;;19.90;99.90;;;;;;5070642;28;20514;-47
2022/06/22 00:10:56;;;;;;;15.73;4.80;;;19.90;99.90;;;;;;5070838;28;20441;-50
2022/06/22 00:13:28;;;;;;;7.10;3.60;;;19.80;99.90;;;;;;5070544;28;20598;-47
2022/06/22 00:16:01;;;;;;;9.70;3.60;;;19.80;99.90;;;;;;5070940;28;21021;-47
2022/06/22 00:18:33;;;;;;;5.17;3.77;;;19.70;99.90;;;;;;5070448;28;20483;-47
2022/06/22 00:21:04;;;;;;;6.40;3.03;;;19.70;99.90;;;;;;5070551;28;20498;-47
2022/06/22 00:23:37;;;;;;;10.40;3.23;;;19.70;99.90;;;;;;5070649;28;20509;-47
2022/06/22 00:26:27;;;;;;;2.67;2.30;;;19.80;99.90;;;;;;5070700;28;20445;-49
2022/06/22 00:29:00;;;;;;;11.13;3.47;;;19.70;99.90;;;;;;5073936;28;20429;-48
2022/06/22 00:31:38;;;;;;;5.73;3.27;;;19.60;99.90;;;;;;5073867;28;20436;-47
2022/06/22 00:34:15;;;;;;;4.87;2.93;;;19.70;99.90;;;;;;5074557;28;20857;-47
2022/06/22 00:36:49;;;;;;;10.30;2.97;;;19.60;99.90;;;;;;5074071;28;20499;-47
2022/06/22 00:39:19;;;;;;;3.53;2.90;;;19.60;99.90;;;;;;5073754;28;21069;-47
2022/06/22 00:41:50;;;;;;;3.70;2.70;;;19.60;99.90;;;;;;5074272;28;20437;-47
2022/06/22 00:44:20;;;;;;;3.70;2.77;;;19.60;99.90;;;;;;5074129;28;20990;-47
2022/06/22 00:46:55;;;;;;;4.40;3.33;;;19.70;99.90;;;;;;5074043;28;20526;-47
2022/06/22 00:49:23;;;;;;;11.60;2.90;;;19.70;99.90;;;;;;5073704;28;20489;-47
2022/06/22 00:51:51;;;;;;;10.50;3.80;;;19.70;99.90;;;;;;5073986;28;20574;-47
2022/06/22 00:54:28;;;;;;;8.63;3.30;;;19.70;99.90;;;;;;5073973;28;20501;-47
2022/06/22 00:57:01;;;;;;;7.00;3.60;;;19.70;99.90;;;;;;5073702;28;20487;-47
2022/06/22 00:59:37;;;;;;;6.50;3.37;;;19.70;99.90;;;;;;5073682;28;20471;-47
2022/06/22 01:02:14;;;;;;;6.90;3.50;;;19.60;99.90;;;;;;5073865;28;20497;-48
2022/06/22 01:04:46;;;;;;;4.73;3.03;;;19.60;99.90;;;;;;5073491;28;20454;-47
2022/06/22 01:07:20;;;;;;;5.60;3.67;;;19.60;99.90;;;;;;5073189;28;20472;-47
2022/06/22 01:09:52;;;;;;;5.00;2.90;;;19.60;99.90;;;;;;5073614;28;20526;-47
2022/06/22 01:12:25;;;;;;;7.17;2.73;;;19.60;99.90;;;;;;5073767;28;20995;-47
2022/06/22 01:15:04;;;;;;;7.00;3.33;;;19.60;99.90;;;;;;5073509;28;20928;-48
2022/06/22 01:17:37;;;;;;;4.50;3.03;;;19.60;99.90;;;;;;5073361;28;20495;-47
2022/06/22 01:20:11;;;;;;;4.73;3.40;;;19.60;99.90;;;;;;5073125;28;20984;-47
2022/06/22 01:22:51;;;;;;;3.50;3.20;;;19.60;99.90;;;;;;5073401;28;20880;-47
2022/06/22 01:25:36;;;;;;;5.47;2.83;;;19.50;99.90;;;;;;5073586;28;20480;-47
2022/06/22 01:28:05;;;;;;;6.07;3.50;;;19.50;99.90;;;;;;5072891;28;20528;-48
2022/06/22 01:30:35;;;;;;;4.20;3.23;;;19.60;99.90;;;;;;5072970;28;20448;-47
2022/06/22 01:33:07;;;;;;;6.60;2.77;;;19.60;99.90;;;;;;5073241;28;21204;-47
2022/06/22 01:35:38;;;;;;;6.17;3.00;;;19.50;99.90;;;;;;5073382;28;20495;-47
2022/06/22 01:38:13;;;;;;;3.20;2.57;;;19.40;99.90;;;;;;5072813;28;20496;-47
2022/06/22 01:40:46;;;;;;;4.57;3.07;;;19.50;99.90;;;;;;5072773;28;20475;-47
2022/06/22 01:43:24;;;;;;;5.50;2.97;;;19.50;99.90;;;;;;5072964;28;20531;-47
2022/06/22 01:45:58;;;;;;;7.00;3.13;;;19.50;99.90;;;;;;5073011;28;20427;-48
2022/06/22 01:48:30;;;;;;;6.73;3.50;;;19.50;99.90;;;;;;5073055;28;20468;-48
2022/06/22 01:51:02;;;;;;;3.50;2.60;;;19.60;99.90;;;;;;5072542;28;20444;-48
2022/06/22 01:53:33;;;;;;;4.60;3.47;;;19.50;99.90;;;;;;5072672;28;20862;-47
2022/06/22 01:56:09;;;;;;;5.20;3.13;;;19.50;99.90;;;;;;5072696;28;20441;-47
2022/06/22 01:58:44;;;;;;;5.63;2.47;;;19.40;99.90;;;;;;5072555;28;20436;-47
2022/06/22 02:01:19;;;;;;;4.73;2.40;;;18.80;99.90;;;;;;5072538;28;20482;-50
2022/06/22 02:03:54;;;;;;;6.43;3.30;;;18.80;99.90;;;;;;5072541;28;20435;-49
2022/06/22 02:09:21;;;;;;;6.40;3.63;;;18.60;99.90;;;;;;5072306;28;20787;-47
2022/06/22 02:12:18;;;;;;;8.60;3.60;;;18.40;99.90;;;;;;5072271;28;20489;-48
2022/06/22 02:14:45;;;;;;;6.17;2.77;;;18.10;99.90;;;;;;5072368;28;20437;-47
2022/06/22 02:17:18;;;;;;;4.83;2.93;;;18.20;99.90;;;;;;5072205;28;20496;-47
2022/06/22 02:19:45;;;;;;;9.10;3.43;;;18.30;99.90;;;;;;5071842;28;20563;-47
2022/06/22 02:22:14;;;;;;;3.50;2.87;;;18.50;99.90;;;;;;5072145;28;20480;-49
2022/06/22 02:24:46;;;;;;;5.20;3.10;;;18.70;99.90;;;;;;5072170;28;20440;-47
2022/06/22 02:27:15;;;;;;;6.30;2.90;;;18.80;99.90;;;;;;5071954;28;20475;-50
2022/06/22 02:29:46;;;;;;;4.13;3.00;;;18.90;99.90;;;;;;5071716;28;20436;-47
2022/06/22 02:32:17;;;;;;;4.53;2.60;;;18.90;99.90;;;;;;5071671;28;20535;-50
2022/06/22 02:34:48;;;;;;;4.97;3.10;;;18.90;99.90;;;;;;5071917;28;20479;-47
2022/06/22 02:37:17;;;;;;;4.53;3.67;;;19.00;99.90;;;;;;5071784;28;20499;-47
2022/06/22 02:39:49;;;;;;;10.33;3.20;;;19.00;99.90;;;;;;5071781;28;20514;-47
2022/06/22 02:45:03;;;;;;;4.30;2.67;;;19.10;99.90;;;;;;5071841;28;20419;-47
2022/06/22 02:47:42;;;;;;;6.70;2.90;;;19.10;99.90;;;;;;5071389;28;20992;-46
2022/06/22 02:50:30;;;;;;;6.53;4.43;;;18.90;99.90;;;;;;5070777;28;20527;-48
2022/06/22 02:53:01;;;;;;;9.03;2.77;;;18.40;99.90;;;;;;5071625;28;20444;-46
2022/06/22 02:55:34;;;;;;;6.37;3.40;;;18.30;99.90;;;;;;5071726;28;20563;-47
2022/06/22 02:58:03;;;;;;;3.80;2.90;;;18.20;99.90;;;;;;5071509;28;20460;-55
2022/06/22 03:00:35;;;;;;;6.60;2.67;;;18.30;99.90;;;;;;5071343;28;20506;-47
2022/06/22 03:03:08;;;;;;;4.33;2.70;;;18.40;99.90;;;;;;5071653;28;20999;-47
2022/06/22 03:05:35;;;;;;;5.40;2.80;;;18.60;99.90;;;;;;5071008;28;20444;-47
2022/06/22 03:08:04;;;;;;;4.30;2.90;;;18.60;99.90;;;;;;5071398;28;20505;-47
2022/06/22 03:10:36;;;;;;;5.33;2.63;;;18.70;99.90;;;;;;5071081;28;20509;-47
2022/06/22 03:13:03;;;;;;;5.90;2.87;;;18.70;99.90;;;;;;5071583;28;20850;-47
2022/06/22 03:15:36;;;;;;;3.50;2.90;;;18.60;99.90;;;;;;5071166;28;20482;-47
2022/06/22 03:18:05;;;;;;;4.33;2.73;;;18.70;99.90;;;;;;5071138;28;20468;-47
2022/06/22 03:20:39;;;;;;;6.03;3.03;;;18.70;99.90;;;;;;5071100;28;20563;-47
2022/06/22 03:23:15;;;;;;;5.70;2.40;;;18.80;99.90;;;;;;5071349;28;20534;-47
2022/06/22 03:25:48;;;;;;;6.40;2.70;;;18.80;99.90;;;;;;5071349;28;20467;-50
2022/06/22 03:28:19;;;;;;;5.30;2.30;;;18.80;99.90;;;;;;5143438;22;20491;-49
2022/06/22 03:30:55;;;;;;;6.07;2.70;;;18.80;99.90;;;;;;5090938;28;20874;-47
2022/06/22 03:33:27;;;;;;;4.70;2.50;;;18.90;99.90;;;;;;5091599;28;20458;-47
2022/06/22 03:35:57;;;;;;;5.30;2.80;;;18.90;99.90;;;;;;5091271;28;20955;-47
2022/06/22 03:38:28;;;;;;;6.27;2.40;;;19.10;99.90;;;;;;5091387;28;20487;-47
2022/06/22 03:40:58;;;;;;;7.23;2.50;;;19.00;99.90;;;;;;5090945;28;20471;-47
2022/06/22 03:43:31;;;;;;;6.73;2.30;;;18.90;99.90;;;;;;5091357;28;20479;-50
2022/06/22 03:46:03;;;;;;;8.10;2.77;;;18.80;99.90;;;;;;5091248;28;20530;-47
2022/06/22 03:48:37;;;;;;;4.57;3.00;;;18.70;99.90;;;;;;5091155;28;20983;-47
2022/06/22 03:51:08;;;;;;;4.73;2.30;;;18.70;99.90;;;;;;5091114;28;20435;-47
2022/06/22 03:53:42;;;;;;;6.27;2.60;;;18.90;99.90;;;;;;5091276;28;20442;-47
2022/06/22 03:56:13;;;;;;;6.93;2.57;;;18.90;99.90;;;;;;5091574;28;20451;-47
2022/06/22 03:58:43;;;;;;;3.73;2.60;;;19.00;99.90;;;;;;5091269;28;20507;-44
2022/06/22 04:01:12;;;;;;;4.50;2.63;;;19.00;99.90;;;;;;5091198;28;20515;-47
2022/06/22 04:03:39;;;;;;;8.30;2.70;;;19.10;99.90;;;;;;5095181;28;20481;-48
2022/06/22 04:06:06;;;;;;;4.50;2.70;;;19.10;99.90;;;;;;5094514;28;20439;-47
2022/06/22 04:08:35;;;;;;;4.57;2.90;;;19.20;99.90;;;;;;5095036;28;20467;-48
2022/06/22 04:11:07;;;;;;;5.87;2.70;;;19.20;99.90;;;;;;5094813;28;20492;-47
2022/06/22 04:13:40;;;;;;;6.13;2.90;;;19.20;99.90;;;;;;5095121;28;20504;-47
2022/06/22 04:16:13;;;;;;;4.20;2.20;;;19.20;99.90;;;;;;5095233;28;20482;-48
2022/06/22 04:18:45;;;;;;;6.87;2.67;;;19.20;99.90;;;;;;5094722;28;20999;-48
2022/06/22 04:21:16;;;;;;;4.60;2.20;;;19.30;99.90;;;;;;5094924;28;20483;-45
2022/06/22 04:23:47;;;;;;;5.63;3.10;;;19.30;99.90;;;;;;5094860;28;20999;-47
2022/06/22 04:26:19;;;;;;;7.00;3.10;;;19.30;99.90;;;;;;5094763;28;20466;-50
2022/06/22 04:28:49;;;;;;;6.37;3.07;;;19.40;99.90;;;;;;5094289;28;20471;-46
2022/06/22 04:31:22;;;;;;;5.47;2.27;;;19.40;99.90;;;;;;5094608;28;20467;-48
2022/06/22 04:33:58;;;;;;;6.90;2.70;;;19.00;99.90;;;;;;5094830;28;20436;-47
2022/06/22 04:36:29;;;;;;;5.27;3.30;;;18.70;99.90;;;;;;5094783;28;20910;-49
2022/06/22 04:39:01;;;;;;;6.63;3.70;;;18.80;99.90;;;;;;5094299;28;20487;-48
2022/06/22 04:41:31;;;;;;;5.20;3.40;;;18.80;99.90;;;;;;5094492;28;20534;-47
2022/06/22 04:44:02;;;;;;;5.90;3.10;;;18.90;99.90;;;;;;5094398;28;20438;-47
2022/06/22 04:46:33;;;;;;;5.60;3.37;;;18.90;99.90;;;;;;5094805;28;20443;-47
2022/06/22 04:49:06;;;;;;;6.37;3.13;;;19.00;99.90;;;;;;5094214;28;20991;-47
2022/06/22 04:51:38;;;;;;;5.50;2.80;;;19.00;99.90;;;;;;5094393;28;20435;-47
2022/06/22 04:54:13;;;;;;;4.33;2.43;;;19.10;99.90;;;;;;5094327;28;20994;-47
2022/06/22 04:56:45;;;;;;;5.17;3.20;;;19.00;99.90;;;;;;5094371;28;20447;-49
2022/06/22 04:59:14;;;;;;;6.80;3.60;;;19.00;99.90;;;;;;5094015;28;20519;-49
2022/06/22 05:01:47;;;;;;;6.47;3.07;;;19.00;99.90;;;;;;5094415;28;20546;-47
2022/06/22 05:04:18;;;;;;;5.10;3.50;;;19.10;99.90;;;;;;5093859;28;20475;-49
2022/06/22 05:06:54;;;;;;;4.37;3.20;;;19.10;99.90;;;;;;5093649;28;20522;-50
2022/06/22 05:09:34;;;;;;;8.70;3.23;;;19.10;99.90;;;;;;5093558;28;20475;-50
2022/06/22 05:12:02;;;;;;;6.43;3.33;;;19.20;99.90;;;;;;5094090;28;20474;-47
2022/06/22 05:14:32;;;;;;;5.93;3.67;;;19.00;99.90;;;;;;5092757;28;20443;-49
2022/06/22 05:17:03;;;;;;;7.90;4.00;;;18.80;99.90;;;;;;5093777;28;20463;-47
2022/06/22 05:19:35;;;;;;;5.97;4.13;;;18.70;99.90;;;;;;5093430;28;20920;-47
2022/06/22 05:22:09;;;;;;;4.37;3.20;;;18.80;99.90;;;;;;5093935;28;20929;-47
2022/06/22 05:24:41;;;;;;;5.70;4.07;;;18.90;99.90;;;;;;5094002;28;20478;-48
2022/06/22 05:27:09;;;;;;;4.53;3.03;;;19.00;99.90;;;;;;5093549;28;20482;-48
2022/06/22 05:29:39;;;;;;;8.33;3.00;;;19.10;99.90;;;;;;5093427;28;20504;-51
2022/06/22 05:32:13;;;;;;;5.67;3.70;;;19.10;99.90;;;;;;5093481;28;20867;-48
2022/06/22 05:34:43;;;;;;;5.87;2.83;;;19.10;99.90;;;;;;5093524;28;20859;-47
2022/06/22 05:37:14;;;;;;;5.60;3.00;;;19.20;99.90;;;;;;5093244;28;20495;-49
2022/06/22 05:39:42;;;;;;;6.80;3.57;;;19.30;99.90;;;;;;5093045;28;20475;-47
2022/06/22 05:42:11;;;;;;;5.27;3.53;;;19.20;99.90;;;;;;5093343;28;20939;-48
2022/06/22 05:44:39;;;;;;;6.80;4.20;;;19.30;99.90;;;;;;5093513;28;20471;-49
2022/06/22 05:47:12;;;;;;;11.17;3.70;;;19.30;99.90;;;;;;5093259;28;20517;-48
2022/06/22 05:49:47;;;;;;;7.40;3.67;;;19.40;99.90;;;;;;5092742;28;20443;-48
2022/06/22 05:52:18;;;;;;;5.60;3.03;;;19.50;99.90;;;;;;5093304;28;20527;-49
2022/06/22 05:54:50;;;;;;;5.50;3.23;;;19.60;99.90;;;;;;5093205;28;20489;-47
2022/06/22 05:57:27;;;;;;;5.27;2.97;;;19.30;99.90;;;;;;5092933;28;20991;-48
2022/06/22 05:59:57;;;;;;;8.47;3.43;;;19.30;99.90;;;;;;5092597;28;20447;-49
2022/06/22 06:02:32;;;;;;;4.23;2.93;;;19.30;99.90;;;;;;5092984;28;20471;-47
2022/06/22 06:05:05;;;;;;;5.40;3.50;;;19.40;99.90;;;;;;5092810;28;20475;-47
2022/06/22 06:07:38;;;;;;;7.37;4.40;;;19.60;99.90;;;;;;5093001;28;20455;-48
2022/06/22 06:10:15;;;;;;;5.40;3.10;;;19.60;99.90;;;;;;5092911;28;20901;-47
2022/06/22 06:12:47;;;;;;;7.87;3.10;;;19.60;99.90;;;;;;5092976;28;20510;-48
2022/06/22 06:15:15;;;;;;;7.07;3.83;;;19.60;99.90;;;;;;5092527;28;20987;-47
2022/06/22 06:17:46;;;;;;;6.13;3.40;;;19.50;99.90;;;;;;5092374;28;20542;-48
2022/06/22 06:20:21;;;;;;;4.40;3.20;;;19.20;99.90;;;;;;5092239;28;20467;-50
2022/06/22 06:22:49;;;;;;;6.00;3.17;;;18.90;99.90;;;;;;5092573;28;20518;-47
2022/06/22 06:28:16;;;;;;;5.80;3.50;;;19.10;99.90;;;;;;5091921;28;20541;-47
2022/06/22 06:30:47;;;;;;;4.83;3.27;;;19.20;99.90;;;;;;5092172;28;20471;-47
2022/06/22 06:33:21;;;;;;;8.50;3.80;;;19.40;99.90;;;;;;5092357;28;20534;-47
2022/06/22 06:35:52;;;;;;;5.60;3.40;;;19.30;99.90;;;;;;5092727;28;20471;-47
2022/06/22 06:38:24;;;;;;;6.10;3.50;;;19.30;99.90;;;;;;5092198;28;20485;-47
2022/06/22 06:41:01;;;;;;;7.33;3.27;;;19.20;99.90;;;;;;5091806;28;20481;-47
2022/06/22 06:43:38;;;;;;;6.40;3.17;;;19.30;99.90;;;;;;5092551;28;20955;-48
2022/06/22 06:46:09;;;;;;;7.23;3.70;;;19.50;99.90;;;;;;5092076;28;20447;-50
2022/06/22 06:48:40;;;;;;;7.30;3.10;;;19.70;99.90;;;;;;5092001;28;20529;-47
2022/06/22 06:51:09;;;;;;;6.07;3.50;;;19.80;99.90;;;;;;5092052;28;21001;-48
2022/06/22 06:53:41;;;;;;;5.17;3.40;;;20.00;99.90;;;;;;5091714;28;20480;-48
2022/06/22 06:56:16;;;;;;;6.63;3.97;;;20.10;99.90;;;;;;5091829;28;20533;-47
2022/06/22 06:58:47;;;;;;;6.90;4.60;;;20.30;99.90;;;;;;5091703;28;20458;-48
2022/06/22 07:01:19;;;;;;;6.53;3.97;;;20.40;99.90;;;;;;5091788;28;20475;-51
2022/06/22 07:03:49;;;;;;;11.47;3.77;;;20.60;99.90;;;;;;5091679;28;20526;-49
2022/06/22 07:06:16;;;;;;;8.90;4.00;;;20.70;99.90;;;;;;5091204;28;20527;-48
2022/06/22 07:08:49;;;;;;;8.17;4.03;;;20.90;99.90;;;;;;5091480;28;20987;-48
2022/06/22 07:11:31;;;;;;;8.73;4.33;;;21.00;99.90;;;;;;5091591;28;20963;-48
2022/06/22 07:14:03;;;;;;;8.83;3.33;;;21.00;99.90;;;;;;5091789;28;20447;-47
2022/06/22 07:16:30;;;;;;;6.97;4.10;;;21.20;99.90;;;;;;5091593;28;20448;-48
2022/06/22 07:19:02;;;;;;;6.20;3.03;;;21.20;99.90;;;;;;5091362;28;20455;-48
2022/06/22 07:21:36;;;;;;;9.07;3.50;;;21.30;99.90;;;;;;5091436;28;20628;-48
2022/06/22 07:24:09;;;;;;;10.57;4.70;;;21.40;99.90;;;;;;5091869;28;20512;-49
2022/06/22 07:26:50;;;;;;;5.53;3.40;;;21.50;99.90;;;;;;5091792;28;20435;-48
2022/06/22 07:29:27;;;;;;;5.80;3.47;;;21.60;99.90;;;;;;5091613;28;20435;-49
2022/06/22 07:31:58;;;;;;;6.43;3.43;;;21.90;99.90;;;;;;5091358;28;20428;-49
2022/06/22 07:34:32;;;;;;;8.03;4.27;;;21.90;99.90;;;;;;5091276;28;20963;-51
2022/06/22 07:37:08;;;;;;;4.60;3.60;;;22.00;99.90;;;;;;5090915;28;20490;-48
2022/06/22 07:39:41;;;;;;;8.20;3.67;;;22.10;99.90;;;;;;5090951;28;20878;-48
2022/06/22 07:42:11;;;;;;;5.30;3.30;;;21.90;99.90;;;;;;5090862;28;20566;-51
2022/06/22 07:44:39;;;;;;;6.77;3.33;;;22.00;99.90;;;;;;5090921;28;20526;-49
2022/06/22 07:47:14;;;;;;;6.20;3.33;;;22.00;99.90;;;;;;5090681;28;20491;-48
2022/06/22 07:49:48;;;;;;;10.03;3.33;;;22.00;99.90;;;;;;5090697;28;20439;-50
2022/06/22 07:52:21;;;;;;;7.73;3.60;;;22.00;99.90;;;;;;5090886;28;20482;-49
2022/06/22 07:54:52;;;;;;;8.23;3.83;;;22.00;99.90;;;;;;5091179;28;20465;-48
2022/06/22 07:57:24;;;;;;;10.00;3.67;;;22.10;99.90;;;;;;5091061;28;20985;-48
2022/06/22 07:59:55;;;;;;;7.47;4.00;;;22.10;99.90;;;;;;5091009;28;21030;-48
2022/06/22 08:02:24;;;;;;;8.33;3.83;;;22.30;99.90;;;;;;5090838;28;20552;-50
2022/06/22 08:04:57;;;;;;;7.10;5.23;;;22.40;99.90;;;;;;5090714;28;20907;-50
2022/06/22 08:07:42;;;;;;;7.17;3.40;;;22.50;99.90;;;;;;5090737;28;20459;-48
2022/06/22 08:10:16;;;;;;;10.77;5.87;;;22.50;99.90;;;;;;5090920;28;20444;-47
2022/06/22 08:12:54;;;;;;;14.50;4.30;;;22.50;99.90;;;;;;5090986;28;20963;-47
2022/06/22 08:15:23;;;;;;;7.63;4.37;;;22.60;99.90;;;;;;5091314;28;20474;-47
2022/06/22 08:17:52;;;;;;;10.73;5.00;;;22.50;99.90;;;;;;5090748;28;20491;-50
2022/06/22 08:20:24;;;;;;;10.53;4.47;;;22.50;99.90;;;;;;5090787;28;20443;-48
2022/06/22 08:22:53;;;;;;;7.90;3.90;;;22.40;99.90;;;;;;5090939;28;20532;-48
2022/06/22 08:25:22;;;;;;;8.10;3.73;;;22.50;99.90;;;;;;5090970;28;20447;-48
2022/06/22 08:27:50;;;;;;;13.07;5.33;;;22.30;99.90;;;;;;5091003;28;20527;-48
2022/06/22 08:30:19;;;;;;;6.83;4.20;;;22.30;99.90;;;;;;5090469;28;20435;-47
2022/06/22 08:32:51;;;;;;;4.37;3.97;;;22.30;99.90;;;;;;5090879;28;20443;-47
2022/06/22 08:35:23;;;;;;;7.20;4.40;;;22.40;99.90;;;;;;5090863;28;20447;-48
2022/06/22 08:37:55;;;;;;;5.33;3.97;;;22.50;99.90;;;;;;5090987;28;20466;-48
2022/06/22 08:40:32;;;;;;;6.30;3.70;;;22.50;99.90;;;;;;5090413;28;20474;-48
2022/06/22 08:43:07;;;;;;;9.57;4.50;;;22.50;99.90;;;;;;5091016;28;20520;-48
2022/06/22 08:45:45;;;;;;;8.03;4.13;;;22.50;99.90;;;;;;5090697;28;20509;-47
2022/06/22 08:48:29;;;;;;;13.10;5.83;;;22.60;99.90;;;;;;5090496;28;20489;-51
2022/06/22 08:51:29;;;;;;;8.37;5.30;;;22.60;99.90;;;;;;5094222;28;20778;-47
2022/06/22 08:54:37;;;;;;;9.60;5.93;;;22.60;99.90;;;;;;5066522;28;20443;-48
2022/06/22 08:57:11;;;;;;;8.70;4.40;;;22.50;99.90;;;;;;5094155;28;20992;-48
2022/06/22 09:00:08;;;;;;;6.70;5.23;;;22.40;99.90;;;;;;5094096;28;20932;-47
2022/06/22 09:03:12;;;;;;;6.50;4.10;;;22.40;99.90;;;;;;5077285;28;20486;-48
2022/06/22 09:05:57;;;;;;;8.43;4.10;;;22.40;99.90;;;;;;5093405;28;20532;-48
2022/06/22 09:08:55;;;;;;;11.07;5.83;;;22.40;99.90;;;;;;5094081;28;20470;-49
2022/06/22 09:11:28;;;;;;;5.87;4.47;;;22.40;99.90;;;;;;5093833;28;20434;-49
2022/06/22 09:14:33;;;;;;;9.03;5.30;;;22.30;99.90;;;;;;5094024;28;20530;-47
2022/06/22 09:17:19;;;;;;;11.97;5.30;;;22.30;99.90;;;;;;5094010;28;20451;-47
2022/06/22 09:20:10;;;;;;;10.00;4.10;;;22.30;99.90;;;;;;5093358;28;20458;-49
2022/06/22 09:22:54;;;;;;;9.83;4.57;;;22.30;99.90;;;;;;5093588;28;20471;-47
2022/06/22 09:25:28;;;;;;;8.37;4.23;;;22.40;99.90;;;;;;5093700;28;20482;-45
2022/06/22 09:28:01;;;;;;;8.47;5.40;;;22.30;99.90;;;;;;5150774;22;20484;-48
2022/06/22 09:30:53;;;;;;;12.53;4.43;;;22.30;99.90;;;;;;5092878;28;20847;-48
2022/06/22 09:33:40;;;;;;;7.03;5.20;;;22.40;99.90;;;;;;5093254;28;20505;-48
2022/06/22 09:36:39;;;;;;;11.00;4.57;;;22.30;99.90;;;;;;5093459;28;20856;-47
2022/06/22 09:39:29;;;;;;;9.93;4.43;;;22.30;99.90;;;;;;5092892;28;20459;-47
2022/06/22 09:42:13;;;;;;;9.13;4.27;;;22.40;99.90;;;;;;5093260;28;20479;-48
2022/06/22 09:45:04;;;;;;;6.13;3.90;;;22.40;99.90;;;;;;5093335;28;20967;-48
2022/06/22 09:47:53;;;;;;;6.47;5.43;;;22.40;99.90;;;;;;5090328;28;20523;-47
2022/06/22 09:51:02;;;;;;;9.27;5.23;;;22.50;99.90;;;;;;5093180;28;21165;-47
2022/06/22 09:53:46;;;;;;;9.90;4.90;;;22.50;99.90;;;;;;5092976;28;20931;-47
2022/06/22 09:56:30;;;;;;;8.87;5.60;;;22.50;99.90;;;;;;5092930;28;20439;-47
2022/06/22 09:59:33;;;;;;;10.43;5.87;;;22.60;99.90;;;;;;5093147;28;20520;-47
2022/06/22 10:02:24;;;;;;;10.47;5.97;;;22.50;99.90;;;;;;5093021;28;20471;-46
2022/06/22 10:05:24;;;;;;;7.67;5.17;;;22.60;99.90;;;;;;5092473;28;20526;-50
2022/06/22 10:08:06;;;;;;;7.20;5.00;;;22.60;99.90;;;;;;5093114;28;20459;-47
2022/06/22 10:10:43;;;;;;;8.03;4.20;;;22.60;99.90;;;;;;5092613;28;20452;-47
2022/06/22 10:13:50;;;;;;;7.93;4.80;;;22.60;99.90;;;;;;5092871;28;20447;-47
2022/06/22 10:16:38;;;;;;;6.53;4.87;;;22.60;99.90;;;;;;5092963;28;20510;-47
2022/06/22 10:19:32;;;;;;;9.33;4.33;;;22.60;99.90;;;;;;5092256;28;21029;-47
2022/06/22 10:22:16;;;;;;;12.60;4.57;;;22.60;99.90;;;;;;5092774;28;20891;-47
2022/06/22 10:25:04;;;;;;;9.30;5.13;;;22.60;99.90;;;;;;5092418;28;20475;-46
2022/06/22 10:27:58;;;;;;;8.87;4.50;;;22.60;99.90;;;;;;5092348;28;20865;-48
2022/06/22 10:30:39;;;;;;;7.10;4.00;;;22.60;99.90;;;;;;5089504;28;21015;-47
2022/06/22 10:33:41;;;;;;;5.73;4.60;;;22.60;99.90;;;;;;5092170;28;20814;-47
2022/06/22 10:36:27;;;;;;;5.63;3.80;;;22.60;99.90;;;;;;5092419;28;20851;-49
2022/06/22 10:39:27;;;;;;;9.43;4.50;;;22.20;99.90;;;;;;5092028;28;20546;-48
2022/06/22 10:45:09;;;;;;;9.20;4.67;;;21.90;99.90;;;;;;5092413;28;20423;-47
2022/06/22 10:48:12;;;;;;;10.30;4.73;;;22.00;99.90;;;;;;5091907;28;20807;-47
2022/06/22 10:50:50;;;;;;;8.90;4.50;;;22.00;99.90;;;;;;5084894;28;20447;-47
2022/06/22 10:53:59;;;;;;;6.57;4.50;;;21.90;99.90;;;;;;5092126;28;20621;-47
2022/06/22 10:56:59;;;;;;;6.23;4.70;;;21.50;99.90;;;;;;5026933;28;20802;-47
2022/06/22 10:59:52;;;;;;;6.50;4.93;;;21.40;99.90;;;;;;5091787;28;20527;-47
2022/06/22 11:03:03;;;;;;;7.43;4.80;;;21.40;99.90;;;;;;5091634;28;20544;-47
2022/06/22 11:05:52;;;;;;;11.20;4.90;;;21.50;99.90;;;;;;5091394;28;20752;-47
2022/06/22 11:08:44;;;;;;;9.47;4.43;;;21.60;99.90;;;;;;5091874;28;20517;-49
2022/06/22 11:11:23;;;;;;;12.43;4.90;;;21.60;99.90;;;;;;5090995;28;20531;-48
2022/06/22 11:14:11;;;;;;;7.97;4.87;;;21.50;99.90;;;;;;5091754;28;20985;-48
2022/06/22 11:17:05;;;;;;;10.40;5.50;;;21.40;99.90;;;;;;5092181;28;20513;-47
2022/06/22 11:20:03;;;;;;;6.83;4.33;;;21.40;99.90;;;;;;5091118;28;20495;-47
2022/06/22 11:22:35;;;;;;;7.57;5.00;;;21.50;99.90;;;;;;5091434;28;20486;-50
2022/06/22 11:31:52;;;;;;;9.60;5.43;;;21.70;99.90;;;;;;5091093;28;20415;-48
2022/06/22 11:34:43;;;;;;;9.27;4.97;;;21.70;99.90;;;;;;5091340;28;20454;-49
2022/06/22 11:37:20;;;;;;;9.33;5.57;;;21.70;99.90;;;;;;5091791;28;20931;-47
2022/06/22 11:40:23;;;;;;;8.17;5.57;;;21.80;99.90;;;;;;5091303;28;20525;-48
2022/06/22 11:43:01;;;;;;;10.83;6.60;;;21.80;99.90;;;;;;5091043;28;20479;-47
2022/06/22 11:45:54;;;;;;;7.67;5.70;;;21.90;99.90;;;;;;5091207;28;20501;-47
2022/06/22 11:48:56;;;;;;;8.90;5.10;;;21.90;99.90;;;;;;5091219;28;20878;-48
2022/06/22 11:51:47;;;;;;;10.07;5.43;;;22.00;99.90;;;;;;5051798;28;20864;-47
2022/06/22 11:54:42;;;;;;;8.33;4.60;;;21.90;99.90;;;;;;5046771;28;20435;-48
2022/06/22 11:57:28;;;;;;;11.10;5.17;;;21.90;99.90;;;;;;5090960;28;20465;-48
2022/06/22 12:00:07;;;;;;;9.20;5.13;;;21.90;99.90;;;;;;5091115;28;20431;-47
2022/06/22 12:03:04;;;;;;;8.33;5.20;;;21.80;99.90;;;;;;5091161;28;21066;-47
2022/06/22 12:05:49;;;;;;;8.03;5.00;;;21.70;99.90;;;;;;5090802;28;20443;-47
2022/06/22 12:08:40;;;;;;;7.00;5.60;;;21.80;99.90;;;;;;5089954;28;20468;-47
2022/06/22 12:11:17;;;;;;;8.77;5.23;;;21.90;99.90;;;;;;5091096;28;20488;-47
2022/06/22 12:17:04;;;;;;;9.60;6.30;;;22.00;99.90;;;;;;5091198;28;20418;-48
2022/06/22 12:19:41;;;;;;;9.40;5.40;;;22.10;99.90;;;;;;5090543;28;20455;-48
2022/06/22 12:22:17;;;;;;;7.97;4.87;;;22.10;99.90;;;;;;5091013;28;20901;-48
2022/06/22 12:25:06;;;;;;;9.33;5.80;;;22.00;99.90;;;;;;5094914;28;20493;-48
2022/06/22 12:27:38;;;;;;;12.87;5.37;;;22.10;99.90;;;;;;5094604;28;20459;-48
2022/06/22 12:30:39;;;;;;;8.17;5.30;;;22.10;99.90;;;;;;5094351;28;20522;-47
2022/06/22 12:33:12;;;;;;;6.70;5.90;;;22.10;99.90;;;;;;5094283;28;20518;-48
2022/06/22 12:35:47;;;;;;;8.70;5.73;;;22.20;99.90;;;;;;5094708;28;20464;-49
2022/06/22 12:38:19;;;;;;;13.23;5.50;;;22.20;99.90;;;;;;5094299;28;20455;-48
2022/06/22 12:40:55;;;;;;;6.37;5.33;;;22.00;99.90;;;;;;5094274;28;20439;-50
2022/06/22 12:43:39;;;;;;;8.87;6.77;;;22.10;99.90;;;;;;5094478;28;20906;-48
2022/06/22 12:46:15;;;;;;;12.80;6.33;;;22.20;99.90;;;;;;5094736;28;20517;-47
2022/06/22 12:49:14;;;;;;;11.83;5.83;;;22.20;99.90;;;;;;5094300;28;20498;-48
2022/06/22 12:51:47;;;;;;;10.23;5.50;;;22.30;99.90;;;;;;5080613;28;20483;-48
2022/06/22 12:54:20;;;;;;;11.90;6.37;;;22.40;99.90;;;;;;5094622;28;20431;-48
2022/06/22 12:56:51;;;;;;;10.50;5.83;;;22.40;99.90;;;;;;5094385;28;20435;-48
2022/06/22 12:59:26;;;;;;;16.60;10.37;;;22.40;99.90;;;;;;5094102;28;20451;-47
2022/06/22 13:01:55;;;;;;;15.40;7.90;;;22.40;99.90;;;;;;5094196;28;20492;-47
2022/06/22 13:04:25;;;;;;;13.53;8.20;;;22.40;99.90;;;;;;5093413;28;20534;-50
2022/06/22 13:06:58;;;;;;;14.60;6.20;;;22.40;99.90;;;;;;5093908;28;20447;-48
2022/06/22 13:09:27;;;;;;;8.97;6.37;;;22.40;99.90;;;;;;5094062;28;20597;-47
2022/06/22 13:11:58;;;;;;;10.50;5.50;;;22.50;99.90;;;;;;5093664;28;20474;-48
2022/06/22 13:14:36;;;;;;;10.87;5.20;;;22.50;99.90;;;;;;5094190;28;20435;-48
2022/06/22 13:17:19;;;;;;;8.83;6.40;;;22.50;99.90;;;;;;5093965;28;21013;-47
2022/06/22 13:20:08;;;;;;;11.75;6.13;;;22.50;99.90;;;;;;5093008;28;20444;-48
2022/06/22 13:22:44;;;;;;;11.63;6.33;;;22.50;99.90;;;;;;5076742;28;20214;-48
2022/06/22 13:25:19;;;;;;;8.67;5.60;;;22.50;99.90;;;;;;5093982;28;20927;-47
2022/06/22 13:27:54;;;;;;;7.77;4.80;;;22.60;99.90;;;;;;5093454;28;20889;-47
2022/06/22 13:30:26;;;;;;;12.73;5.53;;;22.60;99.90;;;;;;5093469;28;20471;-47
2022/06/22 13:33:03;;;;;;;11.83;5.93;;;22.70;99.90;;;;;;5093552;28;20530;-47
2022/06/22 13:35:36;;;;;;;8.57;5.70;;;22.90;99.90;;;;;;5092693;28;20438;-48
2022/06/22 13:38:17;;;;;;;9.03;5.07;;;23.00;99.90;;;;;;5093621;28;20455;-47
2022/06/22 13:40:55;;;;;;;12.17;5.57;;;23.10;99.90;;;;;;5093295;28;20819;-48
2022/06/22 13:43:34;;;;;;;9.70;5.10;;;23.10;99.90;;;;;;5093141;28;20511;-48
2022/06/22 13:46:18;;;;;;;8.83;5.73;;;23.10;99.90;;;;;;5093631;28;20439;-47
2022/06/22 13:48:53;;;;;;;9.37;5.60;;;23.10;99.90;;;;;;5093059;28;20494;-47
2022/06/22 13:51:57;;;;;;;12.77;5.80;;;23.10;99.90;;;;;;5093274;28;20479;-48
2022/06/22 13:55:02;;;;;;;14.80;6.50;;;23.10;99.90;;;;;;5093271;28;20954;-47
2022/06/22 13:57:38;;;;;;;10.07;5.07;;;23.10;99.90;;;;;;5092994;28;20475;-50